Conata, South Dakota
Current Conditions -  °F | °C
As of 5:52 AM on Thursday 23 Oct 2014 (Local Time) from KRAP Reporting Station
Clear Clear  
Wind Chill: 31°   Ceiling: Unl
Heat Index: 38°   Visibility: 10mi
Dew Point: 25°   Wind: 9mph
Humidity: 60%   Direction: 300°WNW
Pressure: 29.98"   Gusts: NA
Location:  43.793°N, 102.433°W
Report Text: KRAP 231152Z AUTO 30008KT 10SM CLR 03/M04 A2998 RMK AO2 SLP158 T00331039 10061 21006 56007
Loading
Personal Weather Stations






























Interactive Weather Map
Tropical Storm Tracking
New forecast layout! Learn more

10-Day Weather Forecast

Advertisements
Track Severe Weather on mobile